WETO2: N Canadian River, Wetumka, OK

Data processed at Tue May 21 2019 23:50


All information presented herein is the property of the government of the United States of America and may be revised or deleted at any time without prior notice.
Dissemination of this information without the expressed written consent of the Public Affairs Office, Tulsa District U.S. Army Corps of Engineers is strictly prohibited.
These data are gathered electronically and, as presented, have not undergone any form of quality control. These data are not guaranteed to be valid or correct.
Go to home page.
Go to station list.
Go to home page.

Upstream stations:

Downstream station:
Previous Day
Next Day
Current Day
    
SHEF ID:       WETO2     North Canadian River near Wetumk
STATION TYPE:  
Regulating: Stage =    14.00, Flow =     9825

               PRECIP     STAGE  RIV-FLOW  BAT-LOAD
                   in        ft       cfs      volt
              Ccp-Rev   Ccp-Rev   Ccp-Rev   Ccp-Rev
(US/Central)
05/21 00:00      0.00     11.28      5393     12.65
05/21 01:00      0.00     11.14      5198     12.65
05/21 02:00      0.00     11.05      5075     12.65
05/21 03:00      0.00     10.93      4912     12.65
05/21 04:00      0.00     10.79      4726     12.65
05/21 05:00      0.00     10.68      4582     12.65
05/21 06:00      0.00     10.58      4453     12.65
05/21 07:00      1.32     10.62      4504     12.65
05/21 08:00      0.62     10.89      4859     12.65
05/21 09:00      0.02     11.24      5337     12.65
05/21 10:00      0.01     11.39      5548     12.89
05/21 11:00      0.00     11.40      5563     12.89
05/21 12:00      0.01     11.56      5792     13.05
05/21 13:00      0.00     11.97      6401     13.05
05/21 14:00      0.00     12.40      7070      ----
05/21 15:00      0.00     12.93      7936     13.29
05/21 16:00      0.00     13.36      8672     13.37
05/21 17:00      0.00     13.72      9312     13.37
05/21 18:00      0.00     13.87      9585     13.21
05/21 19:00      0.00     13.87      9585     12.97
05/21 20:00      0.00     13.81      9476     12.89
05/21 21:00      0.00     13.61      9115     12.81
05/21 22:00      0.00     13.38      8707     12.81
05/21 23:00      0.00     13.19      8378     12.81